Terminal Aerodrome Forecast
Issued by NWS Tulsa, OK

Home | Current Version | Previous Version | Text Only | Print | Product List | Glossary On
Versions: 1 2 3 4 5 6 7 8 9 10 11 12
000
FTUS44 KTSA 191734
TAFFSM
TAF
KFSM 191734Z 1918/2018 05006KT P6SM SKC
     FM191900 19010KT P6SM FEW250
     FM200000 VRB04KT P6SM SCT250
     FM200300 07005KT P6SM BKN015 WS020/21040KT=

USA.gov is the U.S. government's official web portal to all federal, state and local government web resources and services.